createdAt,value
2024-01-16T00:02:14.986Z,72.45
2024-01-16T00:04:43.382Z,72.34
2024-01-16T00:07:11.401Z,72.51
2024-01-16T00:09:39.512Z,72.36
2024-01-16T00:12:08.069Z,72.48
2024-01-16T00:14:39.513Z,72.32
2024-01-16T00:17:07.891Z,72.30
2024-01-16T00:19:35.929Z,72.34
2024-01-16T00:22:05.444Z,72.41
2024-01-16T00:24:33.673Z,72.55
2024-01-16T00:27:01.604Z,72.61
2024-01-16T00:29:29.585Z,72.52
2024-01-16T00:31:57.562Z,72.66
2024-01-16T00:34:25.608Z,72.61
2024-01-16T00:36:53.584Z,72.43
2024-01-16T00:39:21.509Z,72.78
2024-01-16T00:41:50.002Z,72.83
2024-01-16T00:44:18.097Z,73.02
2024-01-16T00:46:46.186Z,72.91
2024-01-16T00:49:14.741Z,72.77
2024-01-16T00:51:43.109Z,73.02
2024-01-16T00:54:11.070Z,72.81
2024-01-16T00:56:39.160Z,73.06
2024-01-16T00:59:07.136Z,72.79
2024-01-16T01:01:35.169Z,72.75
2024-01-16T01:04:03.188Z,72.44
2024-01-16T01:06:31.199Z,72.22
2024-01-16T01:08:59.261Z,72.11
2024-01-16T01:11:27.289Z,71.99
2024-01-16T01:13:55.957Z,71.42
2024-01-16T01:16:23.938Z,71.75
2024-01-16T01:18:52.179Z,71.78
2024-01-16T01:21:20.240Z,71.56
2024-01-16T01:23:48.219Z,71.88
2024-01-16T01:26:16.512Z,71.67
2024-01-16T01:28:44.530Z,71.93
2024-01-16T01:31:15.682Z,71.74
2024-01-16T01:33:43.836Z,71.73
2024-01-16T01:36:12.436Z,71.83
2024-01-16T01:38:40.909Z,71.49
2024-01-16T01:41:09.038Z,71.61
2024-01-16T01:43:36.991Z,71.69
2024-01-16T01:46:14.563Z,71.76
2024-01-16T01:48:44.169Z,71.94
2024-01-16T01:51:16.776Z,71.86
2024-01-16T01:53:47.033Z,72.00
2024-01-16T01:56:18.320Z,71.92
2024-01-16T01:58:49.206Z,71.88
2024-01-16T02:01:20.190Z,71.78
2024-01-16T02:03:52.666Z,71.91
2024-01-16T02:06:20.803Z,71.66
2024-01-16T02:08:49.071Z,71.90
2024-01-16T02:11:17.566Z,72.02
2024-01-16T02:13:45.586Z,71.87
2024-01-16T02:16:23.662Z,72.00
2024-01-16T02:18:52.445Z,72.15
2024-01-16T02:21:24.105Z,72.18
2024-01-16T02:23:52.198Z,72.43
2024-01-16T02:26:21.295Z,72.46
2024-01-16T02:28:49.566Z,72.55
2024-01-16T02:31:17.581Z,72.71
2024-01-16T02:33:46.016Z,72.67
2024-01-16T02:36:14.078Z,72.72
2024-01-16T02:38:44.474Z,72.86
2024-01-16T02:41:16.109Z,73.24
2024-01-16T02:43:44.571Z,73.67
2024-01-16T02:46:12.563Z,73.80
2024-01-16T02:48:40.612Z,73.68
2024-01-16T02:51:08.592Z,73.85
2024-01-16T02:53:36.759Z,74.00
2024-01-16T02:56:04.912Z,74.20
2024-01-16T02:58:33.204Z,74.19
2024-01-16T03:01:01.195Z,73.91
2024-01-16T03:03:29.690Z,74.00
2024-01-16T03:05:58.706Z,73.99
2024-01-16T03:08:26.857Z,73.96
2024-01-16T03:10:55.063Z,73.93
2024-01-16T03:13:23.096Z,74.00
2024-01-16T03:15:51.031Z,74.21
2024-01-16T03:18:19.702Z,73.74
2024-01-16T03:20:47.770Z,74.07
2024-01-16T03:23:16.248Z,73.78
2024-01-16T03:25:45.086Z,73.79
2024-01-16T03:28:13.145Z,73.74
2024-01-16T03:30:41.189Z,73.67
2024-01-16T03:33:09.419Z,73.75
2024-01-16T03:35:37.550Z,73.51
2024-01-16T03:38:06.071Z,73.46
2024-01-16T03:40:36.630Z,73.62
2024-01-16T03:43:04.904Z,73.78
2024-01-16T03:45:32.999Z,73.72
2024-01-16T03:48:01.301Z,73.72
2024-01-16T03:50:29.439Z,73.83
2024-01-16T03:52:57.347Z,73.79
2024-01-16T03:55:25.369Z,73.81
2024-01-16T03:57:53.536Z,73.73
2024-01-16T04:00:21.583Z,73.90
2024-01-16T04:02:49.727Z,73.97
2024-01-16T04:05:17.961Z,74.40
2024-01-16T04:07:45.866Z,74.43
2024-01-16T04:10:13.966Z,74.31
2024-01-16T04:12:42.009Z,74.24
2024-01-16T04:15:10.331Z,73.80
2024-01-16T04:17:38.287Z,73.59
2024-01-16T04:20:09.379Z,73.71
2024-01-16T04:22:37.995Z,73.79
2024-01-16T04:25:07.364Z,73.79
2024-01-16T04:27:35.368Z,73.80
2024-01-16T04:30:03.529Z,73.61
2024-01-16T04:32:31.668Z,73.85
2024-01-16T04:34:59.774Z,73.86
2024-01-16T04:37:28.075Z,73.38
2024-01-16T04:39:56.630Z,73.58
2024-01-16T04:42:24.534Z,73.73
2024-01-16T04:44:52.520Z,73.38
2024-01-16T04:47:20.842Z,73.43
2024-01-16T04:49:48.860Z,73.43
2024-01-16T04:52:16.885Z,73.29
2024-01-16T04:54:44.857Z,73.05
2024-01-16T04:57:12.749Z,72.68
2024-01-16T04:59:40.730Z,73.08
2024-01-16T05:02:15.581Z,72.77
2024-01-16T05:04:43.595Z,72.95
2024-01-16T05:07:11.537Z,73.04
2024-01-16T05:09:39.460Z,73.03
2024-01-16T05:12:08.783Z,73.02
2024-01-16T05:14:36.734Z,73.33
2024-01-16T05:17:05.186Z,73.27
2024-01-16T05:19:33.261Z,73.40
2024-01-16T05:22:01.233Z,73.28
2024-01-16T05:24:29.099Z,73.22
2024-01-16T05:26:57.037Z,73.10
2024-01-16T05:29:25.118Z,73.02
2024-01-16T05:31:53.189Z,73.11
2024-01-16T05:34:24.251Z,73.02
2024-01-16T05:36:52.357Z,72.98
2024-01-16T05:39:20.287Z,73.25
2024-01-16T05:41:48.311Z,73.23
2024-01-16T05:44:16.390Z,73.31
2024-01-16T05:46:45.041Z,73.50
2024-01-16T05:49:13.104Z,73.02
2024-01-16T05:51:41.079Z,73.52
2024-01-16T05:54:09.412Z,73.30
2024-01-16T05:56:37.432Z,73.42
2024-01-16T05:59:05.392Z,73.24
2024-01-16T06:01:33.276Z,72.69
2024-01-16T06:04:02.401Z,72.94
2024-01-16T06:06:30.422Z,73.04
2024-01-16T06:08:59.734Z,72.87
2024-01-16T06:11:40.724Z,72.93
2024-01-16T06:14:12.065Z,72.85
2024-01-16T06:16:40.191Z,73.06
2024-01-16T06:19:08.284Z,73.33
2024-01-16T06:21:36.454Z,73.21
2024-01-16T06:24:04.499Z,73.24
2024-01-16T06:26:35.221Z,73.48
2024-01-16T06:29:03.116Z,73.62
2024-01-16T06:31:31.046Z,73.59
2024-01-16T06:33:59.168Z,73.55
2024-01-16T06:36:27.194Z,73.78
2024-01-16T06:38:55.249Z,74.14
2024-01-16T06:41:23.590Z,74.12
2024-01-16T06:43:51.663Z,73.90
2024-01-16T06:46:19.639Z,74.14
2024-01-16T06:48:47.711Z,74.27
2024-01-16T06:51:16.655Z,74.20
2024-01-16T06:53:44.739Z,73.96
2024-01-16T06:56:23.077Z,74.34
2024-01-16T06:58:51.090Z,74.14
2024-01-16T07:01:19.095Z,74.18
2024-01-16T07:03:47.100Z,74.62
2024-01-16T07:06:15.212Z,73.96
2024-01-16T07:08:43.344Z,74.18
2024-01-16T07:11:15.305Z,74.08
2024-01-16T07:13:43.991Z,74.00
2024-01-16T07:16:13.377Z,74.29
2024-01-16T07:18:44.338Z,74.52
2024-01-16T07:21:23.778Z,74.85
2024-01-16T07:23:51.908Z,74.71
2024-01-16T07:26:19.976Z,74.70
2024-01-16T07:28:50.286Z,74.56
2024-01-16T07:31:21.017Z,74.88
2024-01-16T07:33:49.298Z,75.14
2024-01-16T07:36:17.521Z,75.11
2024-01-16T07:38:45.629Z,75.08
2024-01-16T07:41:13.796Z,75.38
2024-01-16T07:43:42.216Z,75.66
2024-01-16T07:46:10.170Z,75.62
2024-01-16T07:48:38.210Z,76.07
2024-01-16T07:51:06.408Z,76.15
2024-01-16T07:53:34.499Z,75.90
2024-01-16T07:56:02.473Z,75.66
2024-01-16T07:58:30.869Z,75.75
2024-01-16T08:00:58.859Z,76.27
2024-01-16T08:03:26.822Z,76.77
2024-01-16T08:05:54.884Z,77.32
2024-01-16T08:08:23.000Z,77.65
2024-01-16T08:10:51.100Z,77.45
2024-01-16T08:13:19.038Z,77.54
2024-01-16T08:15:46.952Z,77.44
2024-01-16T08:18:14.990Z,77.89
2024-01-16T08:20:44.197Z,77.61
2024-01-16T08:23:12.153Z,77.38
2024-01-16T08:25:40.724Z,77.48
2024-01-16T08:28:08.769Z,77.28
2024-01-16T08:30:36.952Z,77.38
2024-01-16T08:33:05.581Z,77.64
2024-01-16T08:35:33.715Z,79.50
2024-01-16T08:38:01.890Z,79.87
2024-01-16T08:40:29.814Z,80.29
2024-01-16T08:42:58.260Z,79.90
2024-01-16T08:45:27.421Z,79.65
2024-01-16T08:47:56.166Z,79.42
2024-01-16T08:50:24.251Z,79.15
2024-01-16T08:52:52.908Z,79.95
2024-01-16T08:55:20.992Z,80.08
2024-01-16T08:57:48.915Z,80.05
2024-01-16T09:00:17.877Z,80.43
2024-01-16T09:02:46.299Z,80.65
2024-01-16T09:05:15.704Z,80.42
2024-01-16T09:07:43.735Z,80.33
2024-01-16T09:10:12.061Z,80.04
2024-01-16T09:12:40.052Z,80.55
2024-01-16T09:15:08.906Z,80.49
2024-01-16T09:17:37.024Z,80.55
2024-01-16T09:20:05.440Z,80.54
2024-01-16T09:22:33.394Z,80.52
2024-01-16T09:25:01.445Z,80.35
2024-01-16T09:27:29.453Z,80.12
2024-01-16T09:29:57.580Z,80.20
2024-01-16T09:32:25.887Z,80.22
2024-01-16T09:34:54.048Z,79.93
2024-01-16T09:37:22.034Z,79.80
2024-01-16T09:39:49.987Z,79.82
2024-01-16T09:42:18.900Z,79.63
2024-01-16T09:44:51.172Z,79.72
2024-01-16T09:47:20.323Z,79.55
2024-01-16T09:49:49.757Z,79.28
2024-01-16T09:52:17.862Z,79.54
2024-01-16T09:54:45.831Z,79.46
2024-01-16T09:57:16.351Z,79.25
2024-01-16T09:59:45.411Z,78.92
2024-01-16T10:02:15.727Z,79.00
2024-01-16T10:04:47.065Z,78.85
2024-01-16T10:07:16.863Z,78.99
2024-01-16T10:09:46.194Z,78.65
2024-01-16T10:12:14.326Z,78.57
2024-01-16T10:14:45.937Z,78.55
2024-01-16T10:17:18.329Z,77.86
2024-01-16T10:19:54.989Z,77.78
2024-01-16T10:22:27.837Z,77.57
2024-01-16T10:25:08.437Z,77.38
2024-01-16T10:27:37.568Z,77.38
2024-01-16T10:30:06.674Z,77.45
2024-01-16T10:32:37.652Z,77.65
2024-01-16T10:35:07.092Z,77.91
2024-01-16T10:37:50.891Z,77.87
2024-01-16T10:40:26.294Z,78.04
2024-01-16T10:43:01.039Z,78.32
2024-01-16T10:45:29.520Z,77.73
2024-01-16T10:48:23.666Z,77.90
2024-01-16T10:50:54.073Z,77.75
2024-01-16T10:53:24.776Z,77.49
2024-01-16T10:55:54.024Z,77.56
2024-01-16T10:58:26.680Z,77.25
2024-01-16T11:00:56.096Z,77.03
2024-01-16T11:03:34.752Z,77.33
2024-01-16T11:06:04.315Z,76.34
2024-01-16T11:08:35.050Z,76.51
2024-01-16T11:11:05.895Z,76.64
2024-01-16T11:13:36.507Z,76.76
2024-01-16T11:16:09.479Z,76.36
2024-01-16T11:18:37.772Z,75.77
2024-01-16T11:21:16.396Z,75.19
2024-01-16T11:23:48.619Z,76.10
2024-01-16T11:26:31.418Z,75.91
2024-01-16T11:28:59.449Z,75.75
2024-01-16T11:31:35.882Z,75.50
2024-01-16T11:34:05.537Z,75.21
2024-01-16T11:36:49.418Z,75.37
2024-01-16T11:39:22.175Z,75.45
2024-01-16T11:41:52.087Z,74.78
2024-01-16T11:44:38.474Z,74.22
2024-01-16T11:47:07.253Z,74.04
2024-01-16T11:49:35.493Z,74.34
2024-01-16T11:52:03.587Z,74.55
2024-01-16T11:54:31.551Z,74.70
2024-01-16T11:57:29.717Z,74.19
2024-01-16T12:00:14.899Z,74.62
2024-01-16T12:02:59.711Z,74.54
2024-01-16T12:05:28.808Z,73.35
2024-01-16T12:07:57.354Z,74.03
2024-01-16T12:10:26.717Z,73.75
2024-01-16T12:13:03.972Z,73.50
2024-01-16T12:15:34.070Z,73.63
2024-01-16T12:18:03.742Z,74.10
2024-01-16T12:20:37.163Z,73.81
2024-01-16T12:23:12.250Z,73.84
2024-01-16T12:26:01.289Z,73.49
2024-01-16T12:28:32.953Z,73.51
2024-01-16T12:31:03.058Z,73.47
2024-01-16T12:33:31.516Z,72.44
2024-01-16T12:36:07.277Z,72.86
2024-01-16T12:38:35.588Z,72.81
2024-01-16T12:41:10.813Z,73.04
2024-01-16T12:43:42.355Z,72.27
2024-01-16T12:46:14.067Z,71.83
2024-01-16T12:48:52.931Z,72.29
2024-01-16T12:51:25.636Z,72.22
2024-01-16T12:53:53.638Z,72.45
2024-01-16T12:56:34.838Z,71.79
2024-01-16T12:59:16.081Z,71.39
2024-01-16T13:01:46.562Z,69.48
2024-01-16T13:04:17.827Z,71.58
2024-01-16T13:06:50.379Z,71.28
2024-01-16T13:09:18.770Z,71.08
2024-01-16T13:11:57.725Z,71.25
2024-01-16T13:14:26.133Z,70.45
2024-01-16T13:16:57.986Z,70.56
2024-01-16T13:19:26.579Z,70.90
2024-01-16T13:21:54.826Z,71.30
2024-01-16T13:24:25.825Z,71.06
2024-01-16T13:26:54.483Z,70.59
2024-01-16T13:29:22.561Z,70.91
2024-01-16T13:31:50.943Z,68.34
2024-01-16T13:34:21.518Z,67.54
2024-01-16T13:37:08.541Z,68.31
2024-01-16T13:39:41.526Z,69.46
2024-01-16T13:42:09.659Z,69.81
2024-01-16T13:44:37.730Z,69.88
2024-01-16T13:47:10.249Z,69.85
2024-01-16T13:49:42.921Z,69.93
2024-01-16T13:52:10.998Z,69.93
2024-01-16T13:54:41.387Z,70.09
2024-01-16T13:57:10.838Z,69.96
2024-01-16T13:59:41.624Z,69.82
2024-01-16T14:02:10.883Z,69.21
2024-01-16T14:04:39.036Z,69.51
2024-01-16T14:07:12.664Z,69.75
2024-01-16T14:09:46.659Z,69.28
2024-01-16T14:12:15.899Z,69.46
2024-01-16T14:14:44.648Z,69.92
2024-01-16T14:17:13.596Z,69.83
2024-01-16T14:19:41.959Z,69.72
2024-01-16T14:22:10.013Z,69.61
2024-01-16T14:24:39.925Z,69.53
2024-01-16T14:27:08.067Z,69.32
2024-01-16T14:29:39.005Z,69.25
2024-01-16T14:32:08.144Z,68.35
2024-01-16T14:34:36.255Z,68.81
2024-01-16T14:37:04.468Z,69.09
2024-01-16T14:39:33.478Z,68.84
2024-01-16T14:42:01.654Z,69.03
2024-01-16T14:44:29.833Z,69.30
2024-01-16T14:46:57.903Z,69.25
2024-01-16T14:49:26.261Z,69.63
2024-01-16T14:51:54.304Z,69.80
2024-01-16T14:54:22.364Z,69.84
2024-01-16T14:56:51.225Z,70.09
2024-01-16T14:59:19.524Z,70.18
2024-01-16T15:01:47.645Z,70.20
2024-01-16T15:04:15.724Z,70.25
2024-01-16T15:06:44.253Z,70.71
2024-01-16T15:09:14.574Z,70.95
2024-01-16T15:11:44.069Z,70.48
2024-01-16T15:14:16.450Z,70.43
2024-01-16T15:16:44.847Z,70.33
2024-01-16T15:19:12.897Z,70.10
2024-01-16T15:21:41.884Z,70.05
2024-01-16T15:24:09.981Z,69.94
2024-01-16T15:26:38.779Z,69.92
2024-01-16T15:29:08.786Z,70.01
2024-01-16T15:31:36.759Z,70.11
2024-01-16T15:34:04.739Z,76.00
2024-01-16T15:36:32.755Z,76.60
2024-01-16T15:39:00.826Z,74.58
2024-01-16T15:41:30.006Z,73.35
2024-01-16T15:43:58.296Z,73.19
2024-01-16T15:46:27.907Z,72.55
2024-01-16T15:48:58.766Z,71.60
2024-01-16T15:51:26.765Z,70.12
2024-01-16T15:53:57.888Z,70.24
2024-01-16T15:56:26.900Z,68.75
2024-01-16T15:58:54.850Z,64.46
2024-01-16T16:01:22.839Z,63.24
2024-01-16T16:03:50.932Z,62.92
2024-01-16T16:06:21.553Z,62.63
2024-01-16T16:08:49.632Z,61.67
2024-01-16T16:11:18.359Z,62.38
2024-01-16T16:13:46.363Z,62.63
2024-01-16T16:16:14.332Z,62.67
2024-01-16T16:18:42.669Z,62.66
2024-01-16T16:21:11.081Z,63.07
2024-01-16T16:23:39.101Z,63.12
2024-01-16T16:26:07.925Z,63.50
2024-01-16T16:28:35.872Z,63.74
2024-01-16T16:31:03.809Z,64.18
2024-01-16T16:33:31.971Z,64.51
2024-01-16T16:36:00.156Z,64.77
2024-01-16T16:38:29.360Z,65.30
2024-01-16T16:40:57.663Z,65.70
2024-01-16T16:43:25.579Z,66.15
2024-01-16T16:45:53.601Z,66.46
2024-01-16T16:48:21.621Z,66.71
2024-01-16T16:50:49.828Z,67.07
2024-01-16T16:53:17.833Z,67.36
2024-01-16T16:55:48.786Z,67.67
2024-01-16T16:58:17.005Z,68.07
2024-01-16T17:00:45.693Z,68.07
2024-01-16T17:03:13.708Z,68.83
2024-01-16T17:05:41.934Z,68.84
2024-01-16T17:08:11.246Z,69.60
2024-01-16T17:10:44.426Z,69.48
2024-01-16T17:13:12.326Z,69.93
2024-01-16T17:15:40.300Z,70.51
2024-01-16T17:18:10.434Z,70.77
2024-01-16T17:20:38.612Z,71.07
2024-01-16T17:23:06.628Z,71.09
2024-01-16T17:25:35.168Z,71.32
2024-01-16T17:28:03.065Z,71.65
2024-01-16T17:30:31.075Z,72.02
2024-01-16T17:32:59.243Z,71.60
2024-01-16T17:35:28.448Z,71.63
2024-01-16T17:37:56.410Z,72.09
2024-01-16T17:40:24.440Z,72.38
2024-01-16T17:42:52.565Z,72.88
2024-01-16T17:45:20.688Z,73.45
2024-01-16T17:47:51.603Z,72.95
2024-01-16T17:50:19.668Z,73.25
2024-01-16T17:52:50.664Z,73.45
2024-01-16T17:55:19.582Z,73.62
2024-01-16T17:57:48.789Z,73.65
2024-01-16T18:00:19.703Z,73.54
2024-01-16T18:02:49.548Z,74.22
2024-01-16T18:05:21.041Z,73.64
2024-01-16T18:07:49.091Z,73.45
2024-01-16T18:10:21.533Z,73.83
2024-01-16T18:12:49.642Z,73.79
2024-01-16T18:15:17.803Z,73.81
2024-01-16T18:17:48.205Z,74.06
2024-01-16T18:20:21.660Z,74.38
2024-01-16T18:22:50.506Z,74.25
2024-01-16T18:25:18.749Z,74.40
2024-01-16T18:27:46.955Z,74.22
2024-01-16T18:30:17.456Z,74.12
2024-01-16T18:32:46.000Z,74.86
2024-01-16T18:35:15.232Z,74.81
2024-01-16T18:37:43.200Z,74.99
2024-01-16T18:40:16.965Z,75.13
2024-01-16T18:42:47.988Z,75.06
2024-01-16T18:45:18.207Z,74.82
2024-01-16T18:47:47.250Z,75.97
2024-01-16T18:50:15.834Z,75.72
2024-01-16T18:52:45.463Z,76.10
2024-01-16T18:55:15.544Z,75.98
2024-01-16T18:57:45.110Z,76.67
2024-01-16T19:00:18.065Z,75.87
2024-01-16T19:02:47.900Z,75.71
2024-01-16T19:05:16.140Z,75.53
2024-01-16T19:07:45.650Z,75.57
2024-01-16T19:10:16.074Z,75.75
2024-01-16T19:12:48.153Z,76.20
2024-01-16T19:15:21.973Z,76.39
2024-01-16T19:17:51.019Z,76.20
2024-01-16T19:20:26.867Z,76.28
2024-01-16T19:22:57.327Z,76.16
2024-01-16T19:25:30.452Z,75.73
2024-01-16T19:28:01.434Z,75.81
2024-01-16T19:30:30.746Z,76.00
2024-01-16T19:33:03.846Z,75.79
2024-01-16T19:35:32.322Z,75.82
2024-01-16T19:38:01.349Z,76.49
2024-01-16T19:40:30.798Z,76.23
2024-01-16T19:43:04.339Z,76.44
2024-01-16T19:45:32.280Z,76.56
2024-01-16T19:48:00.593Z,76.25
2024-01-16T19:50:30.967Z,76.10
2024-01-16T19:53:05.021Z,76.94
2024-01-16T19:55:33.297Z,76.71
2024-01-16T19:58:06.942Z,76.70
2024-01-16T20:00:34.935Z,76.69
2024-01-16T20:03:10.660Z,76.57
2024-01-16T20:05:42.142Z,76.62
2024-01-16T20:08:14.128Z,76.62
2024-01-16T20:10:42.549Z,76.38
2024-01-16T20:13:10.486Z,76.72
2024-01-16T20:15:41.189Z,76.34
2024-01-16T20:18:11.206Z,76.42
2024-01-16T20:20:39.262Z,76.51
2024-01-16T20:23:07.336Z,76.90
2024-01-16T20:25:35.320Z,77.19
2024-01-16T20:28:06.227Z,76.71
2024-01-16T20:30:35.537Z,77.24
2024-01-16T20:33:03.516Z,77.19
2024-01-16T20:35:31.543Z,77.43
2024-01-16T20:37:59.472Z,77.94
2024-01-16T20:40:27.393Z,77.51
2024-01-16T20:42:58.571Z,77.76
2024-01-16T20:45:26.543Z,77.42
2024-01-16T20:47:56.547Z,77.61
2024-01-16T20:50:24.561Z,77.70
2024-01-16T20:52:52.732Z,77.10
2024-01-16T20:55:20.703Z,77.14
2024-01-16T20:57:49.679Z,77.02
2024-01-16T21:00:18.611Z,77.05
2024-01-16T21:02:46.715Z,77.15
2024-01-16T21:05:14.814Z,76.80
2024-01-16T21:07:43.422Z,76.64
2024-01-16T21:10:11.914Z,76.55
2024-01-16T21:12:40.481Z,76.72
2024-01-16T21:15:08.866Z,76.98
2024-01-16T21:17:37.056Z,76.54
2024-01-16T21:20:08.263Z,76.62
2024-01-16T21:22:37.154Z,76.96
2024-01-16T21:25:07.301Z,77.08
2024-01-16T21:27:35.485Z,77.45
2024-01-16T21:30:03.790Z,76.99
2024-01-16T21:32:32.191Z,77.11
2024-01-16T21:35:00.884Z,77.69
2024-01-16T21:37:28.956Z,78.08
2024-01-16T21:39:56.970Z,78.41
2024-01-16T21:42:25.026Z,78.89
2024-01-16T21:44:54.895Z,78.87
2024-01-16T21:47:23.434Z,78.87
2024-01-16T21:49:52.763Z,79.25
2024-01-16T21:52:22.297Z,79.92
2024-01-16T21:54:51.237Z,79.51
2024-01-16T21:57:19.292Z,79.62
2024-01-16T21:59:47.832Z,79.59
2024-01-16T22:02:16.958Z,79.52
2024-01-16T22:04:45.093Z,79.20
2024-01-16T22:07:13.042Z,79.34
2024-01-16T22:09:41.293Z,79.32
2024-01-16T22:12:10.902Z,80.02
2024-01-16T22:14:40.012Z,80.09
2024-01-16T22:17:08.453Z,79.78
2024-01-16T22:19:36.432Z,79.46
2024-01-16T22:22:04.505Z,79.90
2024-01-16T22:24:32.566Z,80.00
2024-01-16T22:27:00.611Z,79.65
2024-01-16T22:29:28.751Z,79.49
2024-01-16T22:31:57.367Z,79.80
2024-01-16T22:34:26.679Z,81.00
2024-01-16T22:36:54.820Z,80.42
2024-01-16T22:39:26.266Z,81.73
2024-01-16T22:41:54.303Z,81.37
2024-01-16T22:44:24.247Z,81.57
2024-01-16T22:46:52.456Z,81.94
2024-01-16T22:49:20.422Z,83.36
2024-01-16T22:51:49.756Z,83.24
2024-01-16T22:54:17.766Z,82.57
2024-01-16T22:56:45.835Z,83.17
2024-01-16T22:59:13.986Z,83.75
2024-01-16T23:01:41.969Z,83.55
2024-01-16T23:04:10.027Z,83.91
2024-01-16T23:06:38.194Z,84.01
2024-01-16T23:09:08.005Z,83.69
2024-01-16T23:11:36.028Z,84.61
2024-01-16T23:14:04.475Z,84.39
2024-01-16T23:16:32.482Z,84.99
2024-01-16T23:19:00.671Z,84.89
2024-01-16T23:21:29.415Z,85.59
2024-01-16T23:23:57.850Z,85.59
2024-01-16T23:26:25.932Z,85.75
2024-01-16T23:28:53.942Z,87.55
2024-01-16T23:31:22.035Z,87.35
2024-01-16T23:33:50.215Z,87.22
2024-01-16T23:36:18.916Z,87.64
2024-01-16T23:38:46.929Z,87.89
2024-01-16T23:41:14.840Z,87.98
2024-01-16T23:43:44.757Z,88.52
2024-01-16T23:46:12.950Z,88.56
2024-01-16T23:48:41.123Z,90.91
2024-01-16T23:51:09.142Z,90.00
2024-01-16T23:53:37.872Z,90.41
2024-01-16T23:56:06.345Z,89.24
2024-01-16T23:58:34.309Z,89.70
